Kangerlussuaq, Greenland
Current Conditions -  °F | °C
As of 11:50 AM on Tuesday 27 Jan 2015 (Local Time) from BGSF Reporting Station
Light Snow Light Snow  
Wind Chill: -20°   Ceiling: 8000
Heat Index: -6°   Visibility: 5mi
Dew Point: -11°   Wind: 7mph
Humidity: 77%   Direction: 260°W
Pressure: 29.53"   Gusts: NA
Location:  67°N, 50.69°W
Report Text: BGSF 271350Z AUTO 26006KT 8000NDV -SN FEW007/// SCT042/// BKN080/// M21/M24 Q1000
Loading
Personal Weather Stations






























Interactive Weather Map New forecast layout! Learn more

10-Day Weather Forecast

Advertisements
Track Severe Weather on mobile